METAR Data
IDs: Format: Raw Decoded Include TAF

Data at: 1515 UTC 27 Nov 2021

EDDV 271450Z VRB02KT 9999 -RA BKN018 04/02 Q0991 NOSIG